createdAt,value
2019-05-13T00:02:14.884Z,23.65
2019-05-13T00:05:16.217Z,23.30
2019-05-13T00:08:17.817Z,22.45
2019-05-13T00:11:19.761Z,21.42
2019-05-13T00:14:21.315Z,21.30
2019-05-13T00:17:23.715Z,21.05
2019-05-13T00:20:25.077Z,20.70
2019-05-13T00:23:26.546Z,18.57
2019-05-13T00:26:27.796Z,15.23
2019-05-13T00:29:29.686Z,16.32
2019-05-13T00:32:30.936Z,16.70
2019-05-13T00:35:33.955Z,16.25
2019-05-13T00:38:35.311Z,15.45
2019-05-13T00:41:36.983Z,14.65
2019-05-13T00:44:38.376Z,13.53
2019-05-13T00:47:39.848Z,12.88
2019-05-13T00:50:41.106Z,11.03
2019-05-13T00:53:44.212Z,9.45
2019-05-13T00:56:45.584Z,9.30
2019-05-13T00:59:47.469Z,8.80
2019-05-13T01:02:48.717Z,8.93
2019-05-13T01:05:50.310Z,8.40
2019-05-13T01:08:53.574Z,8.98
2019-05-13T01:11:55.768Z,8.68
2019-05-13T01:14:57.112Z,8.90
2019-05-13T01:17:58.585Z,9.43
2019-05-13T01:20:59.801Z,9.65
2019-05-13T01:24:03.493Z,7.65
2019-05-13T01:27:04.343Z,7.60
2019-05-13T01:30:05.861Z,6.87
2019-05-13T01:33:07.086Z,7.58
2019-05-13T01:36:08.505Z,8.00
2019-05-13T01:39:09.825Z,8.95
2019-05-13T01:42:13.659Z,7.40
2019-05-13T01:45:14.289Z,6.47
2019-05-13T01:48:15.466Z,6.95
2019-05-13T01:51:16.854Z,7.30
2019-05-13T01:54:18.102Z,6.30
2019-05-13T01:57:19.477Z,6.40
2019-05-13T02:00:20.715Z,6.45
2019-05-13T02:03:24.385Z,7.40
2019-05-13T02:06:25.214Z,7.45
2019-05-13T02:09:27.233Z,7.75
2019-05-13T02:12:30.579Z,6.35
2019-05-13T02:15:33.751Z,7.87
2019-05-13T02:18:35.029Z,6.05
2019-05-13T02:21:36.481Z,6.25
2019-05-13T02:24:37.829Z,6.08
2019-05-13T02:27:39.201Z,6.20
2019-05-13T02:30:40.441Z,6.67
2019-05-13T02:33:42.348Z,6.45
2019-05-13T02:36:44.080Z,5.78
2019-05-13T02:39:45.381Z,6.58
2019-05-13T02:42:46.622Z,6.62
2019-05-13T02:45:48.042Z,6.97
2019-05-13T02:48:52.567Z,7.65
2019-05-13T02:51:54.655Z,8.03
2019-05-13T02:54:55.606Z,7.00
2019-05-13T02:57:57.323Z,7.33
2019-05-13T03:00:58.587Z,8.83
2019-05-13T03:04:02.735Z,8.93
2019-05-13T03:07:03.316Z,9.00
2019-05-13T03:10:05.504Z,8.00
2019-05-13T03:13:08.625Z,8.75
2019-05-13T03:16:17.847Z,8.85
2019-05-13T03:19:22.381Z,8.60
2019-05-13T03:22:22.731Z,9.93
2019-05-13T03:25:24.169Z,9.13
2019-05-13T03:28:25.413Z,8.90
2019-05-13T03:31:27.144Z,9.60
2019-05-13T03:34:28.476Z,9.00
2019-05-13T03:37:34.496Z,9.00
2019-05-13T03:40:33.138Z,9.50
2019-05-13T03:43:34.677Z,10.95
2019-05-13T03:46:37.729Z,9.13
2019-05-13T03:49:42.201Z,9.65
2019-05-13T03:52:43.431Z,9.23
2019-05-13T03:55:47.415Z,9.63
2019-05-13T03:58:48.629Z,9.43
2019-05-13T04:01:52.434Z,9.78
2019-05-13T04:04:53.379Z,9.15
2019-05-13T04:07:55.147Z,8.95
2019-05-13T04:10:56.415Z,10.78
2019-05-13T04:13:58.289Z,10.10
2019-05-13T04:17:01.899Z,9.00
2019-05-13T04:20:03.272Z,9.10
2019-05-13T04:23:04.609Z,9.30
2019-05-13T04:29:37.538Z,8.55
2019-05-13T04:32:38.796Z,8.55
2019-05-13T04:35:42.614Z,8.98
2019-05-13T04:38:44.592Z,9.05
2019-05-13T04:41:46.267Z,9.28
2019-05-13T04:44:47.842Z,9.35
2019-05-13T04:47:52.551Z,9.58
2019-05-13T04:50:53.236Z,9.08
2019-05-13T04:53:57.338Z,9.83
2019-05-13T04:56:58.430Z,9.03
2019-05-13T05:00:03.684Z,9.10
2019-05-13T05:03:22.955Z,9.50
2019-05-13T05:06:26.313Z,8.98
2019-05-13T05:10:13.256Z,9.70
2019-05-13T05:13:18.030Z,9.78
2019-05-13T05:16:46.130Z,11.25
2019-05-13T05:20:03.193Z,11.05
2019-05-13T05:23:12.842Z,11.73
2019-05-13T05:26:31.307Z,13.62
2019-05-13T05:29:53.795Z,13.25
2019-05-13T05:33:14.114Z,14.00
2019-05-13T05:36:46.663Z,13.18
2019-05-13T05:39:48.134Z,13.22
2019-05-13T05:42:51.669Z,11.28
2019-05-13T05:45:52.602Z,11.30
2019-05-13T05:48:53.833Z,11.85
2019-05-13T05:52:05.056Z,10.95
2019-05-13T05:55:06.274Z,11.40
2019-05-13T05:58:08.429Z,12.53
2019-05-13T06:01:11.836Z,11.90
2019-05-13T06:04:12.825Z,11.50
2019-05-13T06:07:14.022Z,11.80
2019-05-13T06:10:15.993Z,11.70
2019-05-13T06:13:17.187Z,11.20
2019-05-13T06:16:18.899Z,9.78
2019-05-13T06:19:22.338Z,9.98
2019-05-13T06:22:23.734Z,10.70
2019-05-13T06:25:24.972Z,12.65
2019-05-13T06:28:26.235Z,11.18
2019-05-13T06:31:28.279Z,10.65
2019-05-13T06:34:32.740Z,11.90
2019-05-13T06:37:33.590Z,11.00
2019-05-13T06:40:35.714Z,10.40
2019-05-13T06:43:37.335Z,10.72
2019-05-13T06:46:38.916Z,9.28
2019-05-13T06:49:42.850Z,10.48
2019-05-13T06:52:43.603Z,11.50
2019-05-13T06:55:45.056Z,10.05
2019-05-13T06:58:46.289Z,10.43
2019-05-13T07:01:47.845Z,10.93
2019-05-13T07:04:51.488Z,9.73
2019-05-13T07:07:52.388Z,10.20
2019-05-13T07:10:54.092Z,9.20
2019-05-13T07:14:16.915Z,11.53
2019-05-13T07:17:18.199Z,8.85
2019-05-13T07:20:22.651Z,9.43
2019-05-13T07:23:22.900Z,8.60
2019-05-13T07:26:24.178Z,8.73
2019-05-13T07:29:25.569Z,9.70
2019-05-13T07:32:28.517Z,7.90
2019-05-13T07:35:32.302Z,8.63
2019-05-13T07:38:33.267Z,8.18
2019-05-13T07:41:39.276Z,8.75
2019-05-13T07:44:37.684Z,8.15
2019-05-13T07:47:41.482Z,9.08
2019-05-13T07:50:53.568Z,8.28
2019-05-13T07:53:45.722Z,8.13
2019-05-13T07:56:47.004Z,8.95
2019-05-13T07:59:48.723Z,8.28
2019-05-13T08:02:52.331Z,7.80
2019-05-13T08:05:53.382Z,8.40
2019-05-13T08:08:54.755Z,8.60
2019-05-13T08:12:06.505Z,8.60
2019-05-13T08:14:59.163Z,7.83
2019-05-13T08:18:01.989Z,7.42
2019-05-13T08:21:03.571Z,7.25
2019-05-13T08:24:05.017Z,6.62
2019-05-13T08:27:06.258Z,6.50
2019-05-13T08:30:07.897Z,6.47
2019-05-13T08:33:12.476Z,6.95
2019-05-13T08:36:14.175Z,7.55
2019-05-13T08:39:15.431Z,5.70
2019-05-13T08:42:20.118Z,5.92
2019-05-13T08:45:22.396Z,5.90
2019-05-13T08:48:24.161Z,6.22
2019-05-13T08:51:25.428Z,5.42
2019-05-13T08:54:26.853Z,5.67
2019-05-13T08:57:28.091Z,5.03
2019-05-13T09:00:52.513Z,5.78
2019-05-13T09:03:53.190Z,6.20
2019-05-13T09:06:54.495Z,5.95
2019-05-13T09:09:55.842Z,6.42
2019-05-13T09:12:57.944Z,5.40
2019-05-13T09:15:59.266Z,6.05
2019-05-13T09:19:03.644Z,6.00
2019-05-13T09:22:03.831Z,5.10
2019-05-13T09:25:05.286Z,4.85
2019-05-13T09:28:06.549Z,4.65
2019-05-13T09:31:08.034Z,5.30
2019-05-13T09:34:11.899Z,5.15
2019-05-13T09:37:12.943Z,5.90
2019-05-13T09:40:14.213Z,5.67
2019-05-13T09:43:15.666Z,5.80
2019-05-13T09:46:17.145Z,6.17
2019-05-13T09:49:20.847Z,6.42
2019-05-13T09:52:22.670Z,5.90
2019-05-13T09:55:28.956Z,5.72
2019-05-13T09:58:29.667Z,5.72
2019-05-13T10:01:31.980Z,5.62
2019-05-13T10:04:33.258Z,6.20
2019-05-13T10:07:34.712Z,6.33
2019-05-13T10:10:36.146Z,6.40
2019-05-13T10:13:38.056Z,6.45
2019-05-13T10:16:42.092Z,6.40
2019-05-13T10:19:42.606Z,6.10
2019-05-13T10:22:43.860Z,5.58
2019-05-13T10:25:46.387Z,5.55
2019-05-13T10:28:48.011Z,5.53
2019-05-13T10:31:51.392Z,5.80
2019-05-13T10:34:53.293Z,5.37
2019-05-13T10:37:54.735Z,5.15
2019-05-13T10:40:56.237Z,4.97
2019-05-13T10:43:57.688Z,5.35
2019-05-13T10:46:58.937Z,5.30
2019-05-13T10:50:02.787Z,4.80
2019-05-13T10:53:03.482Z,4.70
2019-05-13T10:56:04.825Z,4.47
2019-05-13T10:59:06.274Z,4.28
2019-05-13T11:02:07.506Z,4.10
2019-05-13T11:05:08.871Z,3.90
2019-05-13T11:08:10.107Z,4.60
2019-05-13T11:14:15.832Z,4.80
2019-05-13T11:17:23.163Z,4.28
2019-05-13T11:20:22.073Z,4.00
2019-05-13T11:23:23.745Z,4.42
2019-05-13T11:26:24.969Z,3.92
2019-05-13T11:29:26.351Z,4.70
2019-05-13T11:32:27.599Z,3.92
2019-05-13T11:35:31.555Z,3.70
2019-05-13T11:38:32.900Z,4.15
2019-05-13T11:41:34.598Z,4.62
2019-05-13T11:44:35.855Z,3.85
2019-05-13T11:47:37.405Z,3.30
2019-05-13T11:50:38.645Z,3.90
2019-05-13T11:53:41.688Z,3.65
2019-05-13T11:56:49.479Z,4.20
2019-05-13T11:59:46.445Z,3.70
2019-05-13T12:02:53.830Z,3.95
2019-05-13T12:05:53.835Z,3.70
2019-05-13T12:08:55.370Z,4.10
2019-05-13T12:11:56.989Z,3.95
2019-05-13T12:15:22.408Z,4.53
2019-05-13T12:18:02.882Z,3.55
2019-05-13T12:21:04.570Z,3.42
2019-05-13T12:24:10.424Z,3.80
2019-05-13T12:27:09.260Z,4.30
2019-05-13T12:30:12.650Z,3.83
2019-05-13T12:33:14.151Z,4.20
2019-05-13T12:36:18.322Z,3.58
2019-05-13T12:39:22.915Z,3.95
2019-05-13T12:42:23.285Z,3.72
2019-05-13T12:45:24.681Z,3.65
2019-05-13T12:48:25.969Z,4.00
2019-05-13T12:51:27.451Z,4.45
2019-05-13T12:54:28.690Z,4.55
2019-05-13T12:57:32.450Z,4.05
2019-05-13T13:00:33.332Z,4.20
2019-05-13T13:03:34.696Z,3.55
2019-05-13T13:06:41.652Z,3.80
2019-05-13T13:09:43.250Z,3.60
2019-05-13T13:12:43.363Z,3.10
2019-05-13T13:15:48.655Z,3.33
2019-05-13T13:18:47.908Z,2.98
2019-05-13T13:21:53.014Z,3.62
2019-05-13T13:24:56.968Z,3.70
2019-05-13T13:28:09.995Z,4.17
2019-05-13T13:31:03.791Z,4.20
2019-05-13T13:34:11.265Z,3.72
2019-05-13T13:37:06.426Z,4.78
2019-05-13T13:40:08.348Z,4.55
2019-05-13T13:43:12.332Z,4.90
2019-05-13T13:49:16.152Z,4.00
2019-05-13T13:52:17.969Z,3.85
2019-05-13T13:55:25.514Z,4.47
2019-05-13T13:58:26.830Z,3.85
2019-05-13T14:01:33.329Z,4.72
2019-05-13T14:04:34.468Z,3.62
2019-05-13T14:07:02.763Z,4.60
2019-05-13T14:07:13.386Z,4.28
2019-05-13T14:07:38.784Z,4.17
2019-05-13T14:10:43.581Z,4.25
2019-05-13T14:13:47.151Z,4.05
2019-05-13T14:16:52.027Z,3.70
2019-05-13T14:19:55.703Z,3.80
2019-05-13T14:22:58.411Z,4.80
2019-05-13T14:25:59.886Z,4.70
2019-05-13T14:29:02.817Z,4.33
2019-05-13T14:32:04.281Z,4.40
2019-05-13T14:35:08.696Z,4.50
2019-05-13T14:38:11.864Z,4.72
2019-05-13T14:41:14.181Z,5.53
2019-05-13T14:44:15.968Z,5.95
2019-05-13T14:47:17.831Z,5.47
2019-05-13T14:50:21.972Z,6.15
2019-05-13T14:53:25.023Z,6.80
2019-05-13T14:56:32.333Z,7.15
2019-05-13T14:59:35.995Z,7.45
2019-05-13T15:02:39.204Z,6.92
2019-05-13T15:05:42.936Z,8.03
2019-05-13T15:08:44.859Z,7.40
2019-05-13T15:11:47.296Z,7.78
2019-05-13T15:14:48.679Z,8.43
2019-05-13T15:17:52.810Z,8.60
2019-05-13T15:20:54.304Z,7.97
2019-05-13T15:23:56.623Z,7.92
2019-05-13T15:26:58.497Z,8.55
2019-05-13T15:30:14.447Z,9.25
2019-05-13T15:33:04.451Z,9.58
2019-05-13T15:36:05.938Z,9.30
2019-05-13T15:39:07.704Z,9.50
2019-05-13T15:42:12.027Z,8.20
2019-05-13T15:45:14.146Z,8.88
2019-05-13T15:48:16.409Z,8.78
2019-05-13T15:51:19.096Z,9.48
2019-05-13T15:54:22.964Z,8.13
2019-05-13T15:57:25.465Z,8.33
2019-05-13T16:00:28.696Z,9.13
2019-05-13T16:03:32.561Z,8.10
2019-05-13T16:06:34.884Z,8.63
2019-05-13T16:09:36.135Z,8.08
2019-05-13T16:12:37.679Z,8.43
2019-05-13T16:15:41.475Z,7.10
2019-05-13T16:18:43.463Z,8.00
2019-05-13T16:21:44.793Z,7.97
2019-05-13T16:24:46.271Z,9.15
2019-05-13T16:27:52.024Z,9.23
2019-05-13T16:30:54.137Z,8.43
2019-05-13T16:33:56.044Z,8.58
2019-05-13T16:36:58.330Z,8.03
2019-05-13T16:40:01.118Z,7.62
2019-05-13T16:43:02.472Z,7.45
2019-05-13T16:46:07.097Z,8.08
2019-05-13T16:49:08.244Z,8.25
2019-05-13T16:52:14.911Z,8.33
2019-05-13T16:55:16.320Z,7.95
2019-05-13T16:58:24.469Z,8.75
2019-05-13T17:01:25.400Z,8.98
2019-05-13T17:04:26.786Z,8.60
2019-05-13T17:07:28.384Z,9.70
2019-05-13T17:10:31.572Z,8.70
2019-05-13T17:13:37.352Z,8.85
2019-05-13T17:16:41.695Z,9.08
2019-05-13T17:19:43.494Z,9.50
2019-05-13T17:22:46.226Z,9.85
2019-05-13T17:25:47.603Z,8.83
2019-05-13T17:28:51.790Z,8.98
2019-05-13T17:31:54.862Z,9.23
2019-05-13T17:34:56.512Z,8.65
2019-05-13T17:38:01.962Z,8.78
2019-05-13T17:41:12.062Z,16.75
2019-05-13T17:44:14.311Z,7.53
2019-05-13T17:47:16.304Z,8.43
2019-05-13T17:50:18.192Z,9.10
2019-05-13T17:53:21.520Z,10.28
2019-05-13T17:56:24.867Z,13.18
2019-05-13T17:59:28.099Z,8.90
2019-05-13T18:02:31.344Z,6.65
2019-05-13T18:05:32.663Z,7.25
2019-05-13T18:08:34.363Z,8.38
2019-05-13T18:11:35.916Z,7.03
2019-05-13T18:14:37.176Z,7.75
2019-05-13T18:17:38.686Z,7.55
2019-05-13T18:20:41.522Z,7.50
2019-05-13T18:23:43.056Z,7.75
2019-05-13T18:26:45.007Z,8.13
2019-05-13T18:29:46.754Z,8.60
2019-05-13T18:32:48.791Z,8.08
2019-05-13T18:35:52.427Z,8.60
2019-05-13T18:38:54.247Z,8.33
2019-05-13T18:41:55.539Z,9.10
2019-05-13T18:44:57.608Z,9.18
2019-05-13T18:48:01.564Z,9.50
2019-05-13T18:51:03.623Z,10.78
2019-05-13T18:54:05.101Z,11.12
2019-05-13T18:57:06.525Z,11.12
2019-05-13T19:00:08.069Z,11.73
2019-05-13T19:03:12.447Z,11.95
2019-05-13T19:06:13.825Z,12.60
2019-05-13T19:09:16.341Z,12.33
2019-05-13T19:12:17.707Z,12.37
2019-05-13T19:15:21.145Z,15.60
2019-05-13T19:18:24.257Z,13.68
2019-05-13T19:21:26.096Z,12.25
2019-05-13T19:24:27.374Z,11.88
2019-05-13T19:27:28.909Z,10.90
2019-05-13T19:30:31.835Z,9.83
2019-05-13T19:33:34.780Z,9.40
2019-05-13T19:36:36.599Z,9.40
2019-05-13T19:39:39.955Z,8.20
2019-05-13T19:42:42.348Z,6.65
2019-05-13T19:45:47.174Z,5.87
2019-05-13T19:48:52.050Z,4.95
2019-05-13T19:51:54.809Z,4.80
2019-05-13T19:54:56.964Z,4.72
2019-05-13T19:58:01.730Z,4.70
2019-05-13T20:01:03.885Z,5.10
2019-05-13T20:04:05.667Z,5.30
2019-05-13T20:07:07.777Z,5.80
2019-05-13T20:10:11.895Z,6.97
2019-05-13T20:13:17.771Z,7.33
2019-05-13T20:16:18.999Z,8.10
2019-05-13T20:19:22.364Z,9.05
2019-05-13T20:22:24.830Z,8.13
2019-05-13T20:25:27.079Z,9.58
2019-05-13T20:28:28.395Z,7.90
2019-05-13T20:31:29.652Z,7.62
2019-05-13T20:34:31.828Z,7.58
2019-05-13T20:37:33.478Z,7.00
2019-05-13T20:40:34.843Z,7.22
2019-05-13T20:43:36.225Z,7.55
2019-05-13T20:46:42.274Z,7.00
2019-05-13T20:49:42.992Z,6.85
2019-05-13T20:52:44.716Z,6.95
2019-05-13T20:55:45.955Z,7.17
2019-05-13T20:58:51.355Z,7.10
2019-05-13T21:01:52.531Z,7.40
2019-05-13T21:04:54.042Z,8.13
2019-05-13T21:07:55.290Z,7.40
2019-05-13T21:10:57.183Z,7.08
2019-05-13T21:13:58.427Z,7.67
2019-05-13T21:17:01.422Z,7.33
2019-05-13T21:20:18.541Z,6.87
2019-05-13T21:23:11.270Z,7.53
2019-05-13T21:26:15.408Z,7.42
2019-05-13T21:29:16.098Z,6.42
2019-05-13T21:32:17.832Z,7.17
2019-05-13T21:35:21.247Z,6.78
2019-05-13T21:38:22.555Z,6.78
2019-05-13T21:41:24.031Z,6.08
2019-05-13T21:44:25.398Z,7.00
2019-05-13T21:47:26.786Z,6.20
2019-05-13T21:50:36.134Z,6.65
2019-05-13T21:53:32.642Z,6.58
2019-05-13T21:56:34.128Z,6.83
2019-05-13T21:59:35.446Z,7.90
2019-05-13T22:02:36.817Z,7.08
2019-05-13T22:05:38.515Z,8.38
2019-05-13T22:08:41.273Z,8.43
2019-05-13T22:11:42.852Z,7.83
2019-05-13T22:14:44.129Z,7.80
2019-05-13T22:17:45.383Z,6.92
2019-05-13T22:20:50.404Z,7.85
2019-05-13T22:23:51.747Z,7.60
2019-05-13T22:26:53.410Z,7.30
2019-05-13T22:29:54.671Z,7.47
2019-05-13T22:32:55.951Z,6.95
2019-05-13T22:35:57.233Z,7.20
2019-05-13T22:38:58.498Z,7.85
2019-05-13T22:42:01.637Z,7.55
2019-05-13T22:45:03.599Z,7.80
2019-05-13T22:48:05.279Z,7.28
2019-05-13T22:51:06.734Z,7.97
2019-05-13T22:54:08.327Z,7.70
2019-05-13T22:57:11.937Z,7.47
2019-05-13T23:00:13.531Z,7.92
2019-05-13T23:03:15.084Z,8.25
2019-05-13T23:06:16.516Z,8.03
2019-05-13T23:09:17.888Z,7.60
2019-05-13T23:12:21.266Z,8.18
2019-05-13T23:15:22.677Z,7.75
2019-05-13T23:18:24.119Z,7.67
2019-05-13T23:21:25.375Z,8.00
2019-05-13T23:24:27.631Z,7.53
2019-05-13T23:27:29.387Z,7.78
2019-05-13T23:30:31.220Z,7.00
2019-05-13T23:33:32.602Z,7.35
2019-05-13T23:36:34.072Z,6.80
2019-05-13T23:39:35.340Z,6.78
2019-05-13T23:42:37.111Z,6.28
2019-05-13T23:45:38.581Z,6.80
2019-05-13T23:48:41.375Z,6.00
2019-05-13T23:51:42.679Z,5.60
2019-05-13T23:54:44.163Z,5.87
2019-05-13T23:57:45.449Z,5.78
